< < Back
Terminal Aerodrome Forecast


Current Version              Previous Versions:   1  2  3  4  5  6  7  8  9  

Terminal Aerodrome Forecast

558
FTUS42 KCAE 020200 AAA
TAFCAE
TAF AMD
KCAE 020231Z 0203/0224 VRB04KT P6SM VCSH BKN015
     FM021000 VRB03KT 4SM BR OVC007
     FM021500 06005KT P6SM VCSH SCT015 BKN040=

Latest METAR

258
SAUS80 KWBC 020200
MTRCAE
METAR KCAE 020156Z 35003KT 9SM BKN015 BKN110 23/20 A3006 RMK AO2
RAB01E14 SLP177 P0000 T02330200


USA.gov is the U.S. government's official web portal to all federal, state and local government web resources and services.